Time;durP1;ratioP1;P1;durP2;ratioP2;P2;SDS_P1;SDS_P2;PMS_P1;PMS_P2;Temp;Humidity;BMP_temperature;BMP_pressure;BME280_temperature;BME280_humidity;BME280_pressure;Samples;Min_cycle;Max_cycle;Signal;HPM_P1;HPM_P2
2021/09/20 00:01:42;;;;;;;21.20;14.30;;;;;;;9.03;89.36;96588.42;115809;1195;30469;-83
2021/09/20 00:04:13;;;;;;;18.80;13.60;;;;;;;9.02;89.42;96590.96;115788;1196;32131;-82
2021/09/20 00:06:44;;;;;;;16.90;11.70;;;;;;;9.01;89.51;96595.13;115678;1196;30876;-82
2021/09/20 00:09:15;;;;;;;18.10;13.20;;;;;;;9.00;89.80;96591.16;115779;1196;28873;-82
2021/09/20 00:11:46;;;;;;;18.20;13.30;;;;;;;8.97;89.84;96585.92;115760;1196;27841;-82
2021/09/20 00:14:17;;;;;;;15.30;12.00;;;;;;;8.94;89.89;96583.83;115762;1189;29730;-81
2021/09/20 00:16:49;;;;;;;20.50;14.30;;;;;;;8.93;90.06;96583.98;115717;1196;35329;-82
2021/09/20 00:19:20;;;;;;;19.90;13.40;;;;;;;8.92;90.06;96588.33;115763;1196;30011;-82
2021/09/20 00:21:50;;;;;;;18.20;12.90;;;;;;;8.93;90.21;96586.63;115723;1196;27508;-81
2021/09/20 00:24:21;;;;;;;21.30;14.30;;;;;;;8.92;90.24;96586.31;115777;1196;42408;-83
2021/09/20 00:26:52;;;;;;;16.80;12.20;;;;;;;8.92;90.23;96584.95;115786;1196;28861;-82
2021/09/20 00:29:23;;;;;;;19.60;15.00;;;;;;;8.94;90.39;96586.84;115816;1196;28932;-82
2021/09/20 00:31:54;;;;;;;20.00;14.00;;;;;;;8.91;90.45;96585.27;115824;1190;31676;-82
2021/09/20 00:34:25;;;;;;;22.50;13.00;;;;;;;8.91;90.65;96581.92;115869;1196;25867;-83
2021/09/20 00:36:56;;;;;;;20.20;14.40;;;;;;;8.89;90.86;96583.69;115869;1196;29785;-82
2021/09/20 00:39:26;;;;;;;21.00;14.50;;;;;;;8.86;90.73;96585.26;115867;1194;29649;-82
2021/09/20 00:41:57;;;;;;;17.80;13.30;;;;;;;8.88;90.83;96581.95;115895;1195;25443;-82
2021/09/20 00:44:28;;;;;;;18.40;14.40;;;;;;;8.91;90.87;96579.45;115899;1195;29881;-82
2021/09/20 00:46:59;;;;;;;18.10;12.70;;;;;;;8.96;90.95;96581.86;115940;1196;26429;-82
2021/09/20 00:49:30;;;;;;;17.20;14.30;;;;;;;8.98;90.80;96580.42;115793;1196;29338;-81
2021/09/20 00:52:01;;;;;;;20.30;13.80;;;;;;;8.95;90.60;96581.44;115711;1196;24054;-81
2021/09/20 00:54:33;;;;;;;22.50;14.10;;;;;;;8.99;90.78;96581.11;115746;1196;25097;-82
2021/09/20 00:57:05;;;;;;;19.10;12.70;;;;;;;9.00;90.71;96577.51;115728;1195;69036;-81
2021/09/20 00:59:37;;;;;;;16.30;13.20;;;;;;;9.01;90.97;96578.14;115846;1190;30285;-82
2021/09/20 01:02:07;;;;;;;21.10;14.00;;;;;;;9.04;91.00;96577.52;115773;1196;28517;-82
2021/09/20 01:04:38;;;;;;;21.60;14.90;;;;;;;9.05;91.00;96574.59;115811;1195;27460;-81
2021/09/20 01:07:09;;;;;;;19.30;13.20;;;;;;;9.06;90.91;96575.48;115819;1190;26704;-82
2021/09/20 01:09:41;;;;;;;21.50;14.80;;;;;;;9.08;90.83;96573.63;115783;1196;27448;-83
2021/09/20 01:12:13;;;;;;;17.40;13.20;;;;;;;9.08;90.82;96574.75;115784;1196;35214;-83
2021/09/20 01:14:43;;;;;;;18.80;13.90;;;;;;;9.04;90.62;96568.89;115673;1196;29045;-82
2021/09/20 01:17:14;;;;;;;18.00;13.30;;;;;;;9.01;90.54;96565.14;115758;1196;26614;-83
2021/09/20 01:19:45;;;;;;;18.60;13.70;;;;;;;9.03;90.66;96566.73;115698;1196;76318;-81
2021/09/20 01:22:19;;;;;;;21.70;13.90;;;;;;;9.03;90.70;96570.27;115671;1196;32633;-82
2021/09/20 01:24:53;;;;;;;22.70;15.20;;;;;;;9.01;90.80;96567.15;115805;1190;27642;-82
2021/09/20 01:27:24;;;;;;;21.00;13.60;;;;;;;9.01;90.98;96570.80;115815;1190;28982;-82
2021/09/20 01:29:55;;;;;;;19.70;14.30;;;;;;;9.04;91.03;96575.40;115853;1196;34555;-82
2021/09/20 01:32:26;;;;;;;16.30;11.90;;;;;;;9.06;91.05;96575.02;115847;1196;29206;-82
2021/09/20 01:34:57;;;;;;;17.40;12.80;;;;;;;9.06;90.85;96574.23;115798;1196;31760;-81
2021/09/20 01:37:28;;;;;;;19.70;13.20;;;;;;;9.04;90.68;96573.55;115904;1196;31567;-82
2021/09/20 01:39:59;;;;;;;19.70;13.60;;;;;;;9.04;90.62;96573.92;115874;1196;26366;-82
2021/09/20 01:42:30;;;;;;;16.00;13.20;;;;;;;9.03;90.75;96573.13;115844;1196;30858;-81
2021/09/20 01:45:01;;;;;;;18.50;12.90;;;;;;;9.03;90.77;96575.09;115776;1196;31408;-81
2021/09/20 01:47:32;;;;;;;15.90;12.20;;;;;;;9.04;90.82;96576.77;115834;1196;27517;-81
2021/09/20 01:50:03;;;;;;;17.80;12.80;;;;;;;9.04;91.00;96577.94;115733;1195;47480;-82
2021/09/20 01:52:34;;;;;;;17.80;12.20;;;;;;;9.02;90.88;96577.73;115780;1190;30573;-81
2021/09/20 01:55:07;;;;;;;15.70;11.50;;;;;;;9.02;90.75;96579.48;115756;1196;28737;-81
2021/09/20 01:57:38;;;;;;;18.20;13.00;;;;;;;9.02;90.68;96581.11;115818;1196;29506;-82
2021/09/20 02:00:12;;;;;;;17.70;11.80;;;;;;;9.01;90.80;96581.73;115847;1195;38430;-83
2021/09/20 02:02:44;;;;;;;17.00;13.00;;;;;;;9.01;90.80;96578.40;115856;1196;26598;-83
2021/09/20 02:05:15;;;;;;;17.00;12.00;;;;;;;9.01;90.93;96580.31;115834;1195;28840;-83
2021/09/20 02:07:46;;;;;;;17.90;12.10;;;;;;;9.03;90.91;96578.21;115868;1195;26727;-82
2021/09/20 02:10:18;;;;;;;17.00;12.10;;;;;;;9.02;90.88;96579.06;115836;1195;28723;-82
2021/09/20 02:12:49;;;;;;;18.20;12.50;;;;;;;9.04;90.87;96572.97;115814;1196;30507;-82
2021/09/20 02:15:20;;;;;;;15.60;10.80;;;;;;;9.03;90.93;96577.78;115755;1196;29230;-82
2021/09/20 02:17:51;;;;;;;16.40;11.00;;;;;;;9.04;90.96;96580.00;115708;1196;28750;-81
2021/09/20 02:20:22;;;;;;;13.20;10.40;;;;;;;9.02;90.80;96580.65;115792;1195;50481;-82
2021/09/20 02:22:53;;;;;;;19.40;13.50;;;;;;;9.03;90.83;96583.86;115775;1195;42092;-82
2021/09/20 02:25:24;;;;;;;17.40;11.70;;;;;;;9.03;90.84;96580.43;115838;1195;56188;-82
2021/09/20 02:27:55;;;;;;;14.40;11.00;;;;;;;9.02;90.90;96579.74;115916;1195;32406;-82
2021/09/20 02:30:26;;;;;;;18.60;11.90;;;;;;;9.03;90.96;96582.06;115969;1194;29457;-83
2021/09/20 02:32:57;;;;;;;15.30;11.20;;;;;;;9.04;91.02;96579.11;115806;1195;34209;-82
2021/09/20 02:35:28;;;;;;;15.70;11.70;;;;;;;9.03;90.91;96576.15;115812;1195;35851;-81
2021/09/20 02:37:59;;;;;;;15.80;11.90;;;;;;;8.99;90.91;96572.80;115863;1195;37419;-82
2021/09/20 02:40:30;;;;;;;20.40;12.70;;;;;;;8.95;91.28;96570.60;115948;1189;24118;-82
2021/09/20 02:43:01;;;;;;;18.30;12.60;;;;;;;8.90;91.24;96569.30;115856;1190;27168;-82
2021/09/20 02:45:32;;;;;;;18.50;12.60;;;;;;;8.87;91.32;96570.69;115827;1195;34849;-82
2021/09/20 02:48:03;;;;;;;20.00;13.10;;;;;;;8.86;91.44;96564.53;115813;1190;31494;-81
2021/09/20 02:50:34;;;;;;;19.30;12.30;;;;;;;8.84;91.60;96565.06;115849;1196;35450;-81
2021/09/20 02:53:06;;;;;;;16.20;11.20;;;;;;;8.84;91.44;96561.80;115693;1196;26056;-82
2021/09/20 02:55:37;;;;;;;19.00;12.70;;;;;;;8.85;91.57;96559.03;115693;1196;40095;-81
2021/09/20 02:58:08;;;;;;;18.10;13.00;;;;;;;8.83;91.48;96564.28;115827;1190;30382;-82
2021/09/20 03:00:39;;;;;;;16.10;12.20;;;;;;;8.82;91.50;96566.23;115705;1196;32574;-84
2021/09/20 03:03:10;;;;;;;16.00;13.40;;;;;;;8.83;91.66;96571.15;115768;1196;28538;-83
2021/09/20 03:05:41;;;;;;;16.00;12.00;;;;;;;8.81;91.66;96573.80;115818;1196;26219;-81
2021/09/20 03:08:12;;;;;;;15.40;11.60;;;;;;;8.81;91.69;96572.11;115804;1196;28405;-82
2021/09/20 03:10:43;;;;;;;20.70;13.90;;;;;;;8.82;91.61;96571.05;115786;1195;32358;-81
2021/09/20 03:13:14;;;;;;;17.70;13.70;;;;;;;8.83;91.60;96570.09;115796;1196;29561;-83
2021/09/20 03:15:45;;;;;;;17.70;12.10;;;;;;;8.84;91.60;96569.88;115808;1196;32752;-82
2021/09/20 03:18:16;;;;;;;13.50;10.40;;;;;;;8.87;91.68;96571.42;115778;1196;32417;-81
2021/09/20 03:20:46;;;;;;;15.40;11.00;;;;;;;8.88;91.48;96570.79;115759;1195;31922;-82
2021/09/20 03:23:18;;;;;;;14.40;11.40;;;;;;;8.87;91.46;96572.33;115725;1196;27911;-82
2021/09/20 03:25:49;;;;;;;14.60;11.00;;;;;;;8.85;91.45;96573.31;115806;1195;29522;-81
2021/09/20 03:28:19;;;;;;;15.20;11.00;;;;;;;8.83;91.36;96567.55;115842;1195;29496;-81
2021/09/20 03:30:51;;;;;;;14.40;10.40;;;;;;;8.79;91.22;96569.89;115702;1190;32553;-82
2021/09/20 03:33:22;;;;;;;13.80;9.80;;;;;;;8.75;91.22;96565.05;115792;1195;27001;-82
2021/09/20 03:35:53;;;;;;;14.50;10.70;;;;;;;8.73;91.29;96564.14;115766;1195;36010;-82
2021/09/20 03:38:24;;;;;;;15.00;10.60;;;;;;;8.70;91.30;96566.69;115784;1189;39649;-83
2021/09/20 03:40:55;;;;;;;14.10;10.40;;;;;;;8.68;91.45;96564.30;115867;1196;26195;-82
2021/09/20 03:43:25;;;;;;;15.60;10.20;;;;;;;8.67;91.34;96564.89;115860;1196;45042;-82
2021/09/20 03:45:56;;;;;;;13.30;10.80;;;;;;;8.66;91.32;96568.70;115888;1195;29325;-82
2021/09/20 03:48:27;;;;;;;12.10;9.60;;;;;;;8.64;91.39;96571.67;115881;1196;25266;-82
2021/09/20 03:50:58;;;;;;;14.90;10.50;;;;;;;8.60;91.56;96571.88;115825;1195;47500;-81
2021/09/20 03:53:29;;;;;;;14.90;9.90;;;;;;;8.57;91.46;96578.69;115812;1196;28921;-81
2021/09/20 03:56:00;;;;;;;13.10;9.00;;;;;;;8.57;91.41;96579.73;115884;1196;31344;-84
2021/09/20 03:58:31;;;;;;;12.80;9.50;;;;;;;8.56;91.28;96584.40;115770;1196;37716;-81
2021/09/20 04:01:02;;;;;;;15.20;10.20;;;;;;;8.55;91.39;96588.20;115743;1196;37454;-81
2021/09/20 04:03:34;;;;;;;16.80;10.20;;;;;;;8.56;91.56;96589.58;115689;1196;29263;-83
2021/09/20 04:06:04;;;;;;;17.40;10.40;;;;;;;8.54;91.37;96590.80;115662;1196;27045;-81
2021/09/20 04:08:35;;;;;;;15.20;10.00;;;;;;;8.52;91.53;96588.05;115685;1196;29644;-82
2021/09/20 04:11:06;;;;;;;13.40;10.60;;;;;;;8.51;91.60;96590.33;115671;1196;31652;-81
2021/09/20 04:13:37;;;;;;;13.80;10.40;;;;;;;8.48;91.41;96595.35;115646;1196;29163;-81
2021/09/20 04:16:08;;;;;;;12.80;9.30;;;;;;;8.49;91.51;96597.09;115799;1196;27456;-81
2021/09/20 04:18:39;;;;;;;11.80;8.70;;;;;;;8.49;91.46;96597.63;115851;1196;28617;-82
2021/09/20 04:21:10;;;;;;;12.20;8.70;;;;;;;8.50;91.33;96600.53;115826;1196;28991;-82
2021/09/20 04:23:41;;;;;;;10.80;8.30;;;;;;;8.50;91.04;96602.54;115798;1196;35741;-83
2021/09/20 04:26:12;;;;;;;11.00;8.70;;;;;;;8.51;90.96;96601.48;115826;1195;26868;-83
2021/09/20 04:28:43;;;;;;;13.40;9.70;;;;;;;8.54;90.88;96600.63;115823;1195;29045;-83
2021/09/20 04:31:16;;;;;;;12.20;8.70;;;;;;;8.56;90.84;96602.63;115775;1196;31128;-83
2021/09/20 04:33:47;;;;;;;13.50;8.90;;;;;;;8.58;90.86;96606.98;115796;1195;29284;-83
2021/09/20 04:36:18;;;;;;;11.00;8.60;;;;;;;8.62;90.96;96607.30;115775;1196;28139;-82
2021/09/20 04:38:49;;;;;;;11.90;9.10;;;;;;;8.65;90.87;96609.35;115708;1196;28224;-83
2021/09/20 04:41:20;;;;;;;16.00;10.30;;;;;;;8.67;90.73;96606.59;115655;1196;36919;-82
2021/09/20 04:43:51;;;;;;;14.50;9.50;;;;;;;8.67;90.94;96604.80;115666;1195;31263;-82
2021/09/20 04:46:22;;;;;;;11.00;9.40;;;;;;;8.69;90.93;96608.17;115686;1195;44070;-82
2021/09/20 04:48:53;;;;;;;13.80;9.50;;;;;;;8.71;90.78;96604.27;115657;1196;45066;-83
2021/09/20 04:51:24;;;;;;;12.10;9.50;;;;;;;8.74;90.74;96607.66;115664;1196;27473;-82
2021/09/20 04:53:55;;;;;;;12.50;8.90;;;;;;;8.78;90.82;96614.83;115709;1196;32663;-82
2021/09/20 04:56:26;;;;;;;12.70;9.60;;;;;;;8.79;90.53;96616.05;115776;1196;45811;-82
2021/09/20 04:58:57;;;;;;;11.40;9.10;;;;;;;8.77;90.48;96623.72;115841;1195;25964;-82
2021/09/20 05:01:28;;;;;;;11.40;9.00;;;;;;;8.78;90.58;96622.17;115857;1195;28950;-82
2021/09/20 05:03:59;;;;;;;12.40;9.60;;;;;;;8.80;90.56;96621.86;115868;1195;28514;-82
2021/09/20 05:06:30;;;;;;;12.70;9.80;;;;;;;8.82;90.55;96622.01;115878;1195;27723;-82
2021/09/20 05:09:01;;;;;;;13.80;9.80;;;;;;;8.81;90.34;96619.64;115737;1196;30036;-81
2021/09/20 05:11:32;;;;;;;12.80;9.30;;;;;;;8.81;90.25;96617.10;115752;1195;36841;-82
2021/09/20 05:14:03;;;;;;;14.10;9.90;;;;;;;8.81;90.18;96628.68;115817;1195;27922;-81
2021/09/20 05:16:34;;;;;;;13.90;10.00;;;;;;;8.79;90.28;96629.68;115797;1195;28156;-81
2021/09/20 05:19:05;;;;;;;15.90;10.40;;;;;;;8.76;90.36;96629.80;115727;1196;35827;-81
2021/09/20 05:21:36;;;;;;;13.80;10.40;;;;;;;8.75;90.48;96634.45;115796;1195;28888;-82
2021/09/20 05:24:08;;;;;;;14.00;10.90;;;;;;;8.77;90.52;96636.20;115799;1196;27898;-81
2021/09/20 05:26:39;;;;;;;13.30;10.40;;;;;;;8.78;90.54;96634.77;115750;1195;28468;-81
2021/09/20 05:29:10;;;;;;;12.70;10.40;;;;;;;8.79;90.56;96638.25;115766;1196;49732;-82
2021/09/20 05:31:41;;;;;;;14.20;11.00;;;;;;;8.80;90.53;96636.45;115849;1195;27986;-82
2021/09/20 05:34:11;;;;;;;12.60;10.10;;;;;;;8.74;90.40;96637.25;115790;1195;30982;-81
2021/09/20 05:36:43;;;;;;;12.70;9.50;;;;;;;8.68;90.43;96638.61;115796;1189;27711;-81
2021/09/20 05:39:14;;;;;;;14.40;10.80;;;;;;;8.68;90.59;96636.35;115829;1195;26227;-82
2021/09/20 05:41:45;;;;;;;16.50;12.60;;;;;;;8.68;90.77;96641.32;115769;1196;30719;-82
2021/09/20 05:44:16;;;;;;;18.40;13.40;;;;;;;8.65;90.80;96641.73;115793;1188;30547;-82
2021/09/20 05:46:48;;;;;;;14.50;12.40;;;;;;;8.67;90.55;96643.12;115764;1195;79703;-82
2021/09/20 05:49:18;;;;;;;12.50;9.50;;;;;;;8.70;90.28;96642.58;115775;1195;39966;-82
2021/09/20 05:51:49;;;;;;;14.60;11.60;;;;;;;8.72;90.21;96642.33;115743;1196;29118;-82
2021/09/20 05:54:20;;;;;;;12.20;9.60;;;;;;;8.74;90.23;96643.61;115723;1196;28782;-82
2021/09/20 05:56:51;;;;;;;12.50;10.00;;;;;;;8.77;90.25;96641.48;115686;1196;29953;-82
2021/09/20 05:59:22;;;;;;;15.70;11.20;;;;;;;8.79;90.36;96642.16;115740;1196;28825;-82
2021/09/20 06:01:53;;;;;;;13.10;9.20;;;;;;;8.81;90.27;96641.67;115766;1196;32650;-82
2021/09/20 06:04:25;;;;;;;13.10;10.50;;;;;;;8.80;89.80;96641.11;115700;1196;33258;-82
2021/09/20 06:06:56;;;;;;;12.20;9.70;;;;;;;8.79;89.73;96640.31;115734;1196;33094;-82
2021/09/20 06:09:27;;;;;;;12.50;9.20;;;;;;;8.77;89.67;96643.33;115782;1196;35075;-81
2021/09/20 06:11:58;;;;;;;12.40;10.30;;;;;;;8.75;89.63;96646.41;115781;1196;32492;-82
2021/09/20 06:14:29;;;;;;;14.30;10.10;;;;;;;8.75;89.69;96643.12;115741;1197;51348;-83
2021/09/20 06:17:00;;;;;;;14.30;10.30;;;;;;;8.78;89.89;96644.02;115834;1196;27815;-82
2021/09/20 06:19:31;;;;;;;13.40;10.00;;;;;;;8.79;89.99;96643.64;115763;1190;33989;-80
2021/09/20 06:22:03;;;;;;;12.20;9.10;;;;;;;8.79;89.92;96646.39;115796;1196;25688;-81
2021/09/20 06:24:35;;;;;;;15.40;10.60;;;;;;;8.77;89.98;96647.34;115805;1196;29712;-82
2021/09/20 06:27:07;;;;;;;14.50;10.30;;;;;;;8.78;89.95;96647.39;115744;1196;25949;-81
2021/09/20 06:29:38;;;;;;;13.20;10.60;;;;;;;8.83;90.16;96648.02;115726;1196;29935;-81
2021/09/20 06:32:09;;;;;;;13.10;9.60;;;;;;;8.84;89.94;96645.54;115746;1189;26748;-82
2021/09/20 06:34:40;;;;;;;13.40;9.60;;;;;;;8.84;89.90;96641.25;115774;1196;30965;-82
2021/09/20 06:37:11;;;;;;;15.00;10.40;;;;;;;8.83;89.63;96633.53;115758;1188;28758;-83
2021/09/20 06:39:43;;;;;;;13.20;10.40;;;;;;;8.85;89.80;96641.90;115725;1196;26960;-83
2021/09/20 06:42:14;;;;;;;13.10;10.20;;;;;;;8.91;89.85;96640.84;115750;1196;34456;-82
2021/09/20 06:44:50;;;;;;;12.90;9.90;;;;;;;8.90;89.71;96643.48;115767;1190;32080;-82
2021/09/20 06:47:22;;;;;;;12.40;9.20;;;;;;;8.91;89.58;96646.17;115713;1196;30457;-82
2021/09/20 06:49:53;;;;;;;13.20;9.10;;;;;;;8.95;89.54;96648.60;115669;1197;28337;-82
2021/09/20 06:52:24;;;;;;;14.20;10.20;;;;;;;8.94;89.37;96653.41;115741;1190;29616;-81
2021/09/20 06:54:55;;;;;;;12.60;10.40;;;;;;;8.96;89.47;96655.10;115771;1190;29763;-82
2021/09/20 06:57:27;;;;;;;12.20;9.70;;;;;;;8.96;89.56;96661.28;115823;1196;32922;-82
2021/09/20 06:59:58;;;;;;;11.70;9.00;;;;;;;8.99;89.60;96666.98;115798;1196;33003;-81
2021/09/20 07:02:29;;;;;;;13.70;9.30;;;;;;;9.05;89.79;96663.88;115787;1196;29855;-82
2021/09/20 07:05:01;;;;;;;13.90;8.90;;;;;;;9.09;89.71;96665.83;115826;1196;29721;-82
2021/09/20 07:07:32;;;;;;;12.20;9.40;;;;;;;9.14;89.61;96663.38;115776;1196;27270;-81
2021/09/20 07:10:03;;;;;;;14.10;10.00;;;;;;;9.16;89.46;96659.31;115758;1196;32626;-81
2021/09/20 07:12:34;;;;;;;14.10;9.30;;;;;;;9.12;89.01;96667.65;115787;1191;25290;-82
2021/09/20 07:15:06;;;;;;;12.20;8.80;;;;;;;9.09;89.01;96667.14;115721;1196;30647;-81
2021/09/20 07:17:37;;;;;;;13.30;9.20;;;;;;;9.03;89.01;96669.90;115754;1190;28809;-82
2021/09/20 07:20:11;;;;;;;13.20;9.70;;;;;;;8.95;88.89;96669.85;115716;1189;45753;-82
2021/09/20 07:22:43;;;;;;;12.20;9.20;;;;;;;8.86;89.04;96673.93;115742;1190;29867;-82
2021/09/20 07:25:15;;;;;;;14.60;9.50;;;;;;;8.82;89.28;96681.11;115715;1196;28319;-82
2021/09/20 07:27:46;;;;;;;11.40;9.50;;;;;;;8.80;89.41;96683.98;115682;1189;42529;-82
2021/09/20 07:30:18;;;;;;;13.70;10.20;;;;;;;8.79;89.41;96681.34;115791;1195;27414;-82
2021/09/20 07:32:51;;;;;;;10.90;8.80;;;;;;;8.75;89.39;96683.36;115700;1196;80661;-81
2021/09/20 07:35:22;;;;;;;13.50;8.30;;;;;;;8.70;89.17;96683.92;115782;1196;31947;-82
2021/09/20 07:37:55;;;;;;;9.00;6.90;;;;;;;8.66;89.29;96688.68;115761;1196;44323;-83
2021/09/20 07:40:28;;;;;;;17.10;12.00;;;;;;;8.66;89.43;96684.66;115782;1196;31531;-82
2021/09/20 07:43:00;;;;;;;16.40;10.60;;;;;;;8.68;89.64;96689.68;115799;1196;30345;-82
2021/09/20 07:45:32;;;;;;;13.30;9.40;;;;;;;8.73;89.89;96693.81;115746;1196;34069;-82
2021/09/20 07:48:03;;;;;;;16.50;10.90;;;;;;;8.75;89.90;96693.09;115806;1196;31161;-81
2021/09/20 07:50:34;;;;;;;11.40;7.80;;;;;;;8.75;89.68;96691.76;115771;1196;30642;-81
2021/09/20 07:53:06;;;;;;;8.30;6.40;;;;;;;8.76;89.59;96694.24;115764;1196;31045;-82
2021/09/20 07:55:37;;;;;;;9.40;6.40;;;;;;;8.75;89.44;96696.30;115761;1196;27136;-82
2021/09/20 07:58:09;;;;;;;13.50;9.70;;;;;;;8.77;89.40;96700.27;115762;1196;29383;-82
2021/09/20 08:00:41;;;;;;;11.00;7.60;;;;;;;8.74;88.98;96702.13;115818;1189;30322;-83
2021/09/20 08:03:12;;;;;;;14.30;9.30;;;;;;;8.76;89.18;96704.34;115805;1196;44360;-82
2021/09/20 08:05:45;;;;;;;10.30;7.20;;;;;;;8.79;89.61;96710.42;115780;1196;35581;-81
2021/09/20 08:08:16;;;;;;;10.70;7.40;;;;;;;8.82;89.37;96714.48;115797;1196;29417;-82
2021/09/20 08:10:47;;;;;;;11.70;8.20;;;;;;;8.84;89.47;96717.17;115757;1196;30883;-83
2021/09/20 08:13:19;;;;;;;10.30;6.70;;;;;;;8.91;89.59;96721.53;115751;1196;31212;-82
2021/09/20 08:15:50;;;;;;;9.00;6.10;;;;;;;8.98;89.61;96719.08;115714;1196;35276;-82
2021/09/20 08:18:21;;;;;;;7.90;5.90;;;;;;;8.97;89.52;96720.41;115716;1196;31938;-82
2021/09/20 08:20:53;;;;;;;7.30;6.00;;;;;;;8.98;89.47;96719.50;115774;1190;29356;-81
2021/09/20 08:23:25;;;;;;;8.60;6.20;;;;;;;9.01;89.40;96719.83;115692;1196;29974;-82
2021/09/20 08:25:57;;;;;;;9.30;6.40;;;;;;;9.06;89.20;96719.52;115842;1196;30760;-81
2021/09/20 08:28:28;;;;;;;11.00;6.90;;;;;;;9.09;89.22;96720.35;115819;1189;31805;-81
2021/09/20 08:30:59;;;;;;;6.80;5.60;;;;;;;9.11;89.35;96725.84;115836;1196;33233;-81
2021/09/20 08:33:32;;;;;;;6.90;5.40;;;;;;;9.15;89.38;96724.00;115743;1197;61107;-81
2021/09/20 08:36:03;;;;;;;6.30;5.20;;;;;;;9.22;89.31;96725.20;115795;1196;28454;-81
2021/09/20 08:38:34;;;;;;;8.70;5.80;;;;;;;9.26;89.03;96726.94;115747;1196;33161;-81
2021/09/20 08:41:05;;;;;;;6.30;5.10;;;;;;;9.22;89.02;96725.95;115745;1196;31985;-81
2021/09/20 08:43:37;;;;;;;8.00;5.60;;;;;;;9.16;88.83;96723.73;115776;1196;31636;-81
2021/09/20 08:46:09;;;;;;;10.80;6.90;;;;;;;9.21;89.10;96724.73;115714;1196;34613;-81
2021/09/20 08:48:42;;;;;;;10.20;7.30;;;;;;;9.28;89.41;96719.02;115770;1196;29374;-83
2021/09/20 08:51:15;;;;;;;8.70;6.30;;;;;;;9.49;89.92;96722.58;115714;1196;29092;-83
2021/09/20 08:53:47;;;;;;;8.30;6.30;;;;;;;9.79;90.15;96721.91;115719;1196;32931;-82
2021/09/20 08:56:18;;;;;;;9.00;6.60;;;;;;;10.13;90.00;96723.16;115745;1196;28671;-82
2021/09/20 08:58:49;;;;;;;8.10;6.00;;;;;;;10.27;88.24;96722.43;115812;1194;28304;-81
2021/09/20 09:01:21;;;;;;;9.60;6.10;;;;;;;10.28;87.49;96726.16;115775;1194;34581;-82
2021/09/20 09:03:52;;;;;;;9.90;6.40;;;;;;;10.29;87.05;96726.10;115790;1195;29191;-83
2021/09/20 09:06:32;;;;;;;8.80;6.60;;;;;;;10.33;87.15;96732.42;115798;1196;26120;-83
2021/09/20 09:09:03;;;;;;;9.00;6.80;;;;;;;10.34;86.97;96734.17;115731;1196;30446;-81
2021/09/20 09:11:36;;;;;;;7.30;6.00;;;;;;;10.20;86.54;96737.77;115819;1195;29870;-84
2021/09/20 09:14:07;;;;;;;9.40;6.50;;;;;;;10.03;85.97;96741.10;115808;1196;31187;-81
2021/09/20 09:16:39;;;;;;;8.60;6.50;;;;;;;9.94;86.13;96743.84;115704;1196;49046;-82
2021/09/20 09:19:15;;;;;;;15.20;10.80;;;;;;;9.81;86.19;96748.98;115715;1196;28434;-81
2021/09/20 09:21:48;;;;;;;9.90;7.20;;;;;;;9.80;87.33;96749.55;115775;1196;27979;-82
2021/09/20 09:24:21;;;;;;;10.50;7.30;;;;;;;9.76;87.26;96748.77;115700;1190;28143;-82
2021/09/20 09:27:00;;;;;;;10.60;7.40;;;;;;;9.68;87.35;96746.29;115799;1195;31350;-82
2021/09/20 09:29:33;;;;;;;9.30;6.60;;;;;;;9.74;87.08;96739.45;115891;1195;26948;-82
2021/09/20 09:32:05;;;;;;;13.50;8.30;;;;;;;9.78;86.80;96745.64;115849;1195;34548;-82
2021/09/20 09:34:36;;;;;;;10.90;6.80;;;;;;;9.88;87.60;96744.86;115834;1195;27552;-82
2021/09/20 09:37:12;;;;;;;10.70;7.80;;;;;;;9.93;87.66;96749.98;115813;1194;28030;-81
2021/09/20 09:39:45;;;;;;;10.40;7.90;;;;;;;9.90;88.12;96752.87;115845;1195;34091;-82
2021/09/20 09:42:27;;;;;;;12.50;8.00;;;;;;;9.93;88.23;96751.95;115837;1195;28910;-82
2021/09/20 09:44:59;;;;;;;11.10;8.30;;;;;;;9.91;88.21;96745.29;115886;1195;28826;-82
2021/09/20 09:47:32;;;;;;;10.80;8.10;;;;;;;9.98;88.49;96752.46;115870;1195;33372;-82
2021/09/20 09:50:19;;;;;;;10.00;7.20;;;;;;;10.01;88.21;96750.39;115785;1195;27413;-81
2021/09/20 09:52:52;;;;;;;12.40;8.80;;;;;;;9.87;87.75;96756.10;115797;1195;25395;-82
2021/09/20 09:55:25;;;;;;;10.90;7.50;;;;;;;9.84;88.03;96756.63;115886;1196;31800;-82
2021/09/20 09:57:57;;;;;;;11.80;8.00;;;;;;;9.75;87.69;96761.12;115763;1196;66864;-82
2021/09/20 10:00:27;;;;;;;9.40;7.40;;;;;;;9.64;87.64;96768.48;115815;1195;29118;-82
2021/09/20 10:03:07;;;;;;;9.50;7.30;;;;;;;9.50;87.28;96781.06;115758;1195;27745;-82
2021/09/20 10:05:38;;;;;;;13.50;9.30;;;;;;;9.42;87.31;96785.61;115777;1189;30341;-81
2021/09/20 10:08:14;;;;;;;14.60;8.60;;;;;;;9.32;87.26;96787.80;115768;1195;28830;-81
2021/09/20 10:10:45;;;;;;;9.50;6.60;;;;;;;9.22;87.28;96787.48;115798;1196;27474;-83
2021/09/20 10:13:17;;;;;;;11.80;9.80;;;;;;;9.17;87.16;96784.42;115840;1195;29340;-83
2021/09/20 10:15:48;;;;;;;8.80;6.90;;;;;;;9.14;86.76;96786.79;115784;1195;28940;-82
2021/09/20 10:18:19;;;;;;;8.40;5.70;;;;;;;9.08;86.70;96787.80;115844;1195;27842;-82
2021/09/20 10:20:50;;;;;;;7.90;6.20;;;;;;;8.97;86.62;96787.19;115834;1189;29038;-82
2021/09/20 10:23:21;;;;;;;10.40;6.60;;;;;;;8.95;87.01;96787.46;115796;1188;28649;-82
2021/09/20 10:25:52;;;;;;;9.10;5.80;;;;;;;8.97;87.15;96788.31;115814;1195;29108;-82
2021/09/20 10:28:23;;;;;;;7.80;6.10;;;;;;;8.99;86.91;96790.20;115797;1195;38579;-82
2021/09/20 10:30:54;;;;;;;8.60;6.10;;;;;;;8.96;86.82;96787.73;115821;1195;29478;-83
2021/09/20 10:33:28;;;;;;;8.70;5.80;;;;;;;8.92;86.07;96785.88;115798;1190;28490;-82
2021/09/20 10:35:59;;;;;;;7.10;5.20;;;;;;;8.87;85.56;96784.85;115815;1195;41900;-81
2021/09/20 10:38:32;;;;;;;7.00;5.70;;;;;;;8.81;85.38;96784.17;115803;1196;33468;-82
2021/09/20 10:41:12;;;;;;;8.00;5.80;;;;;;;8.90;86.17;96784.55;115798;1196;28827;-81
2021/09/20 10:43:47;;;;;;;8.30;6.60;;;;;;;9.09;86.47;96786.27;115751;1196;57822;-82
2021/09/20 10:46:27;;;;;;;9.40;5.40;;;;;;;9.31;86.67;96781.60;115827;1195;28577;-82
2021/09/20 10:49:01;;;;;;;8.00;5.40;;;;;;;9.45;86.18;96772.45;115862;1196;28469;-83
2021/09/20 10:51:39;;;;;;;7.70;5.50;;;;;;;9.48;85.69;96776.14;115786;1196;28474;-82
2021/09/20 10:54:25;;;;;;;7.80;5.70;;;;;;;9.52;85.51;96773.59;115737;1195;29840;-81
2021/09/20 10:57:11;;;;;;;8.00;5.90;;;;;;;9.70;85.94;96777.33;115787;1195;45698;-82
2021/09/20 10:59:42;;;;;;;8.40;5.70;;;;;;;9.95;86.18;96775.99;115810;1190;27364;-82
2021/09/20 11:02:19;;;;;;;7.00;5.40;;;;;;;10.25;86.31;96775.27;115810;1195;27466;-83
2021/09/20 11:05:03;;;;;;;7.80;5.20;;;;;;;10.50;85.90;96776.55;115836;1195;28614;-82
2021/09/20 11:07:45;;;;;;;6.40;5.10;;;;;;;10.71;85.39;96772.13;115866;1195;31430;-82
2021/09/20 11:10:18;;;;;;;9.10;6.00;;;;;;;10.86;85.03;96773.26;115820;1195;29123;-82
2021/09/20 11:13:02;;;;;;;7.30;5.40;;;;;;;11.06;84.89;96771.63;115800;1196;28903;-84
2021/09/20 11:15:40;;;;;;;8.70;6.10;;;;;;;11.04;83.39;96772.65;115834;1188;28760;-81
2021/09/20 11:18:31;;;;;;;7.70;5.60;;;;;;;10.79;82.44;96769.90;115839;1195;27521;-83
2021/09/20 11:21:09;;;;;;;5.50;4.90;;;;;;;10.54;82.48;96773.70;115750;1195;31881;-82
2021/09/20 11:23:40;;;;;;;8.00;6.60;;;;;;;10.28;81.14;96774.98;115811;1195;27944;-82
2021/09/20 11:26:16;;;;;;;8.80;6.50;;;;;;;10.08;81.90;96782.20;115797;1195;28286;-83
2021/09/20 11:28:51;;;;;;;7.00;5.40;;;;;;;9.96;82.19;96781.39;115682;1196;45558;-83
2021/09/20 11:31:28;;;;;;;11.10;7.40;;;;;;;9.90;82.89;96788.08;115816;1196;29910;-82
2021/09/20 11:33:59;;;;;;;13.40;8.10;;;;;;;9.85;82.84;96790.73;115852;1181;45975;-82
2021/09/20 11:36:35;;;;;;;8.60;6.60;;;;;;;9.72;82.25;96793.36;115860;1196;27973;-83
2021/09/20 11:39:16;;;;;;;7.30;5.70;;;;;;;9.62;82.35;96794.86;115805;1195;25896;-82
2021/09/20 11:41:58;;;;;;;8.30;6.00;;;;;;;9.61;82.89;96795.13;115794;1195;34078;-82
2021/09/20 11:44:30;;;;;;;8.30;6.00;;;;;;;9.64;83.15;96800.15;115895;1190;35338;-83